Melissa RD121's Hourly Summary for Tuesday, May 15, 2018
Hour Temp
(f)
RH
(%)
Solar Rad.
(MJ/m2)
Rainfall
(in)
Wind
(mph)
5/15/2018 12:00 AM 75 76 0 0 1.98
5/15/2018 1:00 AM 74 77 0 0 2.48
5/15/2018 2:00 AM 74 77 0 0 3.93
5/15/2018 3:00 AM 74 78 0 0 2.09
5/15/2018 4:00 AM 73 80 0 0 1.84
5/15/2018 5:00 AM 71 86 0 0 2.02
5/15/2018 6:00 AM 70 92 0.01 0.01 1.93
5/15/2018 7:00 AM 69 94 0.12 0 6.54
5/15/2018 8:00 AM 69 92 0.3 0 8.61
5/15/2018 9:00 AM 69 86 0.85 0 9.46
5/15/2018 10:00 AM 72 77 1.63 0 8.38
5/15/2018 11:00 AM 76 59 2.44 0 9.18
5/15/2018 12:00 PM 80 51 2.52 0 4.77
5/15/2018 1:00 PM 82 46 2.42 0 4.92
5/15/2018 2:00 PM 84 42 2.84 0 4.28
5/15/2018 3:00 PM 85 42 2.61 0 4.23
5/15/2018 4:00 PM 84 42 1.06 0 3
5/15/2018 5:00 PM 74 60 0.9 0 8.66
5/15/2018 6:00 PM 74 65 0.6 0 6.47
5/15/2018 7:00 PM 73 65 0.18 0 7
5/15/2018 8:00 PM 71 68 0.01 0 6.99
5/15/2018 9:00 PM 69 70 0 0 4.13
5/15/2018 10:00 PM 68 75 0 0 1.61
5/15/2018 11:00 PM 66 81 0 0 0.09
Data Summary 74 70 18.49 0.01 4.77